Latest Coastal Weather Observations for Merimbula

IDN60701

Issued at 8:05 am EST Thursday 17 April 2014 (issued every 10 minutes, with the page automatically refreshed every 10 minutes)

About coastal observations | Map of coastal stations | Coastal observations for NSW | Marine services | Other Formats
Station Details ID: 069147 Name: MERIMBULA AIRPORT AWS Lat: -36.91 Lon: 149.90 Height: 1.5 m
Data from the previous 72 hours. | See also: Recent months at Merimbula
Date/Time
EST
Temp

°C
Wind Pressure Rain
since 9am
mm
Weather Cloud Vis
km
Sea
Height
m
Swell
Dir
 
Speed
knots
Gust
knots
hPa Trend Height
m
Period
s
Dir
17/08:00am 14.3 W 0 0 1020.9 - 0.0 - - 10 - - - -
17/07:30am 11.5 CALM 0 0 1020.7 - 0.0 - - 10 - - - -
17/07:00am 9.7 SW 4 6 1020.3 - 0.0 - - 10 - - - -
17/06:30am 9.8 SW 5 6 1019.9 - 0.0 - - 10 - - - -
17/06:00am 10.2 WNW 4 6 1019.9 - 0.0 - - 10 - - - -
17/05:30am 9.6 WSW 3 5 1019.6 - 0.0 - - 10 - - - -
17/05:00am 10.2 WSW 4 5 1019.4 - 0.0 - - 10 - - - -
17/04:30am 10.3 SSW 6 7 1019.2 - 0.0 - - 10 - - - -
17/04:00am 10.6 SW 5 6 1019.1 - 0.0 - - 10 - - - -
17/03:30am 11.0 SSW 5 6 1019.1 - 0.0 - - 10 - - - -
17/03:00am 11.3 W 4 6 1019.1 - 0.0 - - 10 - - - -
17/02:30am 10.4 WSW 3 5 1019.2 - 0.0 - - 10 - - - -
17/02:00am 10.7 SSW 5 6 1019.4 - 0.0 - - 10 - - - -
17/01:30am 10.4 WSW 4 5 1019.5 - 0.0 - - 10 - - - -
17/01:00am 10.9 SW 4 5 1019.8 - 0.0 - - 10 - - - -
17/12:30am 11.0 SW 5 6 1019.9 - 0.0 - - 10 - - - -
17/12:00am 11.2 SSW 6 6 1020.1 - 0.0 - - 10 - - - -
 
Date/Time
EST
Temp

°C
Wind Pressure Rain
since 9am
mm
Weather Cloud Vis
km
Sea
Height
m
Swell
Dir
 
Speed
knots
Gust
knots
hPa Trend Height
m
Period
s
Dir
16/11:30pm 11.1 SW 5 5 1020.2 - 0.0 - - 10 - - - -
16/11:00pm 11.3 SW 5 6 1020.4 - 0.0 - Partly cloudy 10 - - - -
16/10:30pm 11.7 SW 5 6 1020.5 - 0.0 - Partly cloudy 10 - - - -
16/10:00pm 11.4 SSW 5 6 1020.6 - 0.0 - - 10 - - - -
16/09:30pm 11.5 CALM 0 0 1020.6 - 0.0 - - 10 - - - -
16/09:00pm 11.7 CALM 0 0 1020.6 - 0.0 - - 10 - - - -
16/08:30pm 12.2 CALM 0 0 1020.4 - 0.0 - - 10 - - - -
16/08:00pm 13.3 NW 7 8 1020.3 - 0.0 - - 10 - - - -
16/07:30pm 12.8 CALM 0 5 1020.1 - 0.0 - - 10 - - - -
16/07:00pm 13.7 W 3 6 1020.0 - 0.0 - - 10 - - - -
16/06:30pm 14.8 SSW 5 6 1019.8 - 0.0 - - 10 - - - -
16/06:00pm 15.9 SSW 5 7 1019.5 - 0.0 - - 10 - - - -
16/05:30pm 16.9 S 7 9 1019.1 - 0.0 - - 10 - - - -
16/05:00pm 18.2 SSE 8 13 1018.9 - 0.0 - - 10 - - - -
16/04:30pm 18.4 SE 10 14 1018.8 - 0.0 - - 10 - - - -
16/04:00pm 18.9 SE 9 14 1018.7 - 0.0 - - 10 - - - -
16/03:30pm 20.0 ESE 9 14 1018.7 - 0.0 - - 10 - - - -
16/03:00pm 20.5 SE 8 13 1018.9 - 0.0 - - 10 - - - -
16/02:30pm 20.8 ESE 6 12 1018.9 - 0.0 - Partly cloudy 10 - - - -
16/02:00pm 20.1 S 7 10 1019.0 - 0.0 - Partly cloudy 10 - - - -
16/01:30pm 21.3 ESE 6 11 1019.0 - 0.0 - - 10 - - - -
16/01:00pm 20.2 SSE 2 6 1019.2 - 0.0 - Partly cloudy 10 - - - -
16/12:30pm 19.9 SSW 5 8 1019.6 - 0.0 - Partly cloudy 10 - - - -
16/12:00pm 21.3 SSW 2 7 1020.0 - 0.0 - - 10 - - - -
16/11:30am 20.5 S 7 11 1020.4 - 0.0 - - 10 - - - -
16/11:00am 20.4 SSW 6 9 1020.8 - 0.0 - - 10 - - - -
16/10:30am 20.1 SW 7 11 1021.1 - 0.0 - - 10 - - - -
16/10:00am 19.4 W 6 8 1021.3 - 0.0 - - 10 - - - -
16/09:30am 18.7 W 5 9 1021.5 - 0.0 - - 10 - - - -
16/09:00am 17.5 WSW 7 9 1021.8 - 0.0 - - 10 - - - -
16/08:30am 16.4 WSW 7 11 1021.8 - 0.0 - Partly cloudy 10 - - - -
16/08:00am 14.2 W 7 9 1021.6 - 0.0 - Partly cloudy 10 - - - -
16/07:30am 11.9 SW 4 5 1021.6 - 0.0 - - 10 - - - -
16/07:00am 11.0 WSW 3 6 1021.3 - 0.0 - - 10 - - - -
16/06:30am 10.9 SSW 4 5 1021.2 - 0.0 - Partly cloudy 10 - - - -
16/06:00am 11.5 SW 4 6 1021.1 - 0.0 - Mostly clear 10 - - - -
16/05:30am 12.3 W 6 8 1021.0 - 0.0 - - 10 - - - -
16/05:00am 12.4 W 6 10 1021.0 - 0.0 - - 10 - - - -
16/04:30am 12.4 W 7 11 1021.0 - 0.0 - - 10 - - - -
16/04:00am 11.6 WSW 4 6 1021.1 - 0.0 - - 10 - - - -
16/03:30am 11.9 W 4 5 1021.1 - 0.0 - - 10 - - - -
16/03:00am 12.4 W 5 7 1021.1 - 0.0 - - 10 - - - -
16/02:30am 12.7 W 4 7 1021.4 - 0.0 - - 10 - - - -
16/02:00am 12.9 WSW 5 7 1021.7 - 0.0 - Partly cloudy 10 - - - -
16/01:30am 12.9 W 6 7 1022.0 - 0.0 - Partly cloudy 10 - - - -
16/01:00am 12.2 WSW 4 5 1022.3 - 0.0 - Partly cloudy 10 - - - -
16/12:30am 11.3 W 3 4 1022.5 - 0.0 - Partly cloudy 10 - - - -
16/12:00am 10.7 WSW 3 4 1022.7 - 0.0 - - 10 - - - -
 
Date/Time
EST
Temp

°C
Wind Pressure Rain
since 9am
mm
Weather Cloud Vis
km
Sea
Height
m
Swell
Dir
 
Speed
knots
Gust
knots
hPa Trend Height
m
Period
s
Dir
15/11:30pm 11.2 WSW 5 5 1022.8 - 0.0 - - 10 - - - -
15/11:00pm 11.5 SW 5 6 1023.0 - 0.0 - - 10 - - - -
15/10:30pm 11.5 SSW 3 4 1023.2 - 0.0 - Partly cloudy 10 - - - -
15/10:00pm 12.1 SSW 4 5 1023.3 - 0.0 - Partly cloudy 10 - - - -
15/09:30pm 12.1 SSW 5 6 1023.3 - 0.0 - Partly cloudy 10 - - - -
15/09:00pm 12.6 WSW 4 5 1023.3 - 0.0 - - 10 - - - -
15/08:30pm 13.0 WSW 4 5 1023.1 - 0.0 - Partly cloudy 10 - - - -
15/08:00pm 12.9 SW 4 5 1022.9 - 0.0 - - 10 - - - -
15/07:30pm 13.4 SW 4 5 1022.9 - 0.0 - Partly cloudy 10 - - - -
15/07:00pm 13.8 SW 4 5 1022.9 - 0.0 - Partly cloudy 10 - - - -
15/06:30pm 14.6 SW 4 5 1022.7 - 0.0 - Partly cloudy 10 - - - -
15/06:00pm 14.8 SW 4 5 1022.4 - 0.0 - Partly cloudy 10 - - - -
15/05:30pm 15.6 SW 5 6 1022.2 - 0.0 - Partly cloudy 10 - - - -
15/05:00pm 16.2 SW 5 8 1021.9 - 0.0 - - 10 - - - -
15/04:30pm 17.2 SW 8 11 1021.7 - 0.0 - Partly cloudy 10 - - - -
15/04:00pm 17.7 SSW 7 10 1021.6 - 0.0 - Partly cloudy 10 - - - -
15/03:30pm 18.8 S 8 13 1021.5 - 0.0 - Partly cloudy 10 - - - -
15/03:00pm 19.4 S 9 15 1021.4 - 0.0 - Partly cloudy 10 - - - -
15/02:30pm 18.1 S 13 18 1021.4 - 0.0 - Partly cloudy 10 - - - -
15/02:00pm 19.5 S 12 17 1021.1 - 0.0 - Partly cloudy 10 - - - -
15/01:30pm 18.0 SW 10 15 1021.2 - 0.0 - Partly cloudy 10 - - - -
15/01:00pm 18.9 S 8 13 1021.3 - 0.0 - Partly cloudy 10 - - - -
15/12:30pm 17.8 SSW 9 15 1021.6 - 0.0 - Partly cloudy 10 - - - -
15/12:00pm 16.8 S 8 11 1022.2 - 0.0 - Cloudy 7 - - - -
15/11:30am 18.2 SW 7 9 1022.4 - 0.0 - Partly cloudy 10 - - - -
15/11:00am 17.2 SSW 9 17 1022.8 - 0.0 - Partly cloudy 10 - - - -
15/10:30am 18.7 SW 7 12 1022.5 - 0.0 - Partly cloudy 10 - - - -
15/10:00am 19.3 SSW 10 16 1022.4 - 0.0 - Partly cloudy 10 - - - -
15/09:30am 18.3 SW 9 15 1022.6 - 0.0 - Partly cloudy 10 - - - -
15/09:00am 18.3 SW 9 15 1022.5 - 0.0 - Mostly clear 10 - - - -
15/08:30am 17.7 SW 8 13 1022.4 - 0.0 - Partly cloudy 10 - - - -
15/08:00am 16.8 WSW 7 13 1022.4 - 0.0 - Partly cloudy 10 - - - -
15/07:30am 14.9 CALM 0 0 1022.3 - 0.0 - Partly cloudy 10 - - - -
15/07:00am 14.0 W 2 4 1022.2 - 0.0 - Partly cloudy 10 - - - -
15/06:30am 14.0 W 7 11 1021.9 - 0.0 - Partly cloudy 10 - - - -
15/06:00am 14.3 W 7 10 1021.8 - 0.0 - Cloudy 10 - - - -
15/05:30am 14.2 W 5 7 1021.7 - 0.0 - Cloudy 10 - - - -
15/05:00am 14.1 SW 4 7 1021.6 - 0.0 - Cloudy 10 - - - -
15/04:30am 13.9 WSW 7 10 1021.3 - 0.0 - Partly cloudy 10 - - - -
15/04:00am 14.3 W 9 14 1021.1 - 0.0 - Partly cloudy 10 - - - -
15/03:30am 14.2 W 8 11 1020.9 - 0.0 - Partly cloudy 10 - - - -
15/03:00am 14.4 W 8 11 1021.1 - 0.0 - Cloudy 10 - - - -
15/02:30am 14.1 W 9 12 1021.2 - 0.0 - Partly cloudy 10 - - - -
15/02:00am 13.9 W 8 12 1021.4 - 0.0 - Partly cloudy 10 - - - -
15/01:30am 13.5 W 7 11 1021.6 - 0.0 - - 10 - - - -
15/01:00am 13.6 W 9 13 1021.9 - 0.0 - - 10 - - - -
15/12:30am 13.5 W 9 15 1022.0 - 0.0 - - 10 - - - -
15/12:00am 13.3 W 10 15 1022.0 - 0.0 - - 10 - - - -
 
Date/Time
EST
Temp

°C
Wind Pressure Rain
since 9am
mm
Weather Cloud Vis
km
Sea
Height
m
Swell
Dir
 
Speed
knots
Gust
knots
hPa Trend Height
m
Period
s
Dir
14/11:30pm 13.1 WSW 7 10 1022.3 - 0.0 - Partly cloudy 10 - - - -
14/11:00pm 12.7 WSW 5 7 1022.7 - 0.0 - Partly cloudy 10 - - - -
14/10:30pm 11.8 SW 4 6 1022.9 - 0.0 - Partly cloudy 10 - - - -
14/10:00pm 12.2 SSW 5 6 1023.0 - 0.0 - - 10 - - - -
14/09:30pm 14.2 W 8 12 1023.0 - 0.0 - - 10 - - - -
14/09:00pm 14.1 W 8 10 1022.9 - 0.0 - - 10 - - - -
14/08:30pm 13.9 W 7 10 1022.8 - 0.0 - - 10 - - - -
14/08:00pm 13.8 WSW 5 7 1022.7 - 0.0 - - 10 - - - -
14/07:30pm 14.4 W 7 9 1022.6 - 0.0 - - 10 - - - -
14/07:00pm 15.0 W 5 7 1022.5 - 0.0 - Partly cloudy 10 - - - -
14/06:30pm 15.8 SW 4 8 1022.1 - 0.0 - Cloudy 10 - - - -
14/06:00pm 16.2 SSW 5 8 1021.8 - 0.0 - Cloudy 10 - - - -
14/05:30pm 16.4 SSW 6 9 1021.6 - 0.0 - Partly cloudy 10 - - - -
14/05:00pm 17.2 S 6 13 1021.2 - 0.0 - - 10 - - - -
14/04:30pm 17.6 SSW 7 11 1021.2 - 0.0 - Partly cloudy 10 - - - -
14/04:00pm 17.7 S 8 13 1021.1 - 0.0 - Cloudy 10 - - - -
14/03:30pm 18.4 S 8 12 1020.9 - 0.0 - Partly cloudy 10 - - - -
14/03:00pm 19.4 S 9 13 1020.8 - 0.0 - Partly cloudy 10 - - - -
14/02:30pm 19.3 SW 9 14 1020.8 - 0.0 - Partly cloudy 10 - - - -
14/02:00pm 19.0 SSW 7 10 1020.9 - 0.0 - Partly cloudy 10 - - - -
14/01:30pm 18.6 SSE 9 13 1021.1 - 0.0 - Partly cloudy 10 - - - -
14/01:00pm 18.9 WSW 3 7 1021.4 - 0.0 - Partly cloudy 10 - - - -
14/12:30pm 17.9 WSW 8 11 1021.7 - 0.0 - Partly cloudy 10 - - - -
14/12:00pm 19.0 SW 7 11 1022.0 - 0.0 - Cloudy 10 - - - -
14/11:30am 18.9 SW 7 11 1022.2 - 0.0 - Cloudy 10 - - - -
14/11:00am 18.4 SSW 7 12 1022.4 - 0.0 - Cloudy 10 - - - -
14/10:30am 18.3 SSW 8 15 1022.5 - 0.0 - Partly cloudy 10 - - - -
14/10:00am 17.5 SW 8 12 1022.5 - 0.0 - Partly cloudy 10 - - - -
14/09:30am 17.7 WSW 8 13 1022.6 - 0.0 - Partly cloudy 10 - - - -
14/09:00am 17.0 WSW 7 13 1022.5 - 0.0 - Mostly cloudy 10 - - - -
14/08:30am 16.2 SW 10 16 1022.4 - 0.0 - Partly cloudy 10 - - - -

Other Formats:

Comma delimited format used in spreadsheet applications
http://www.bom.gov.au/fwo/IDN60701/IDN60701.95929.axf

JavaScript Object Notation format (JSON) in row-major order
http://www.bom.gov.au/fwo/IDN60701/IDN60701.95929.json